GRZ530 Details

Departure: Sacramento International Airport (KSMF)
Arrival: Vancouver International Airport (CYVR)
Route: RBL J65 LMT J189 SEA PAE GRIZZ6


Current Weather Information
KSMF 191553Z 20004KT 10SM FEW250 17/13 A2993 RMK AO2 SLP135 T01720133
CYVR 191600Z 11011KT 20SM FEW014 SCT039 OVC052 OVC250 17/13 A2997 RMK CU1SC3SC5CS1 CU TR CS TR VIS HIER N 30SM SLP150 DENSITY ALT 300FT